الصفحة الرئيسية
METAR-TAF:

METAR-TAF

مطار :

إل سنترو, كاليفورنيا, الولايات المتحدة

دائرة عرض: 32-49-30N, خط طول: 115-39-38W, ارتفاع: 13 متر

مراقبة الطقس الحالي

تاريخ ووقت الإصدار 5ساعات و 33 دقيقة قبل الساعة 05:56UTC
ريح 4 عقدة من الغرب/الجنوب الغربي
درجة الحرارة 27°درجة مئوية
الرطوبة 26%
ضغط 1012 hPa
الرؤية: 16.1 كم
سماء صافية

METAR: KNJK 290556Z 25004KT 10SM CLR 27/06 A2988 RMK SLP133 T02720056 10384 20272 53010

زمن: 04:29 (11:29 UTC)

توقعات

التوقعات صالحة من29 الساعة 07 UTC إلى 30 الساعة 07 UTC
ريح 6 عقدةمن اتجاهات متغيرة
الرؤية 10 كم أو أكثر
سماء صافية

TAF: KNJK 2907/3007 VRB06KT 9999 SKC QNH2983INS T21/2913Z T41/2923Z FS30150

أرصاد الطقس والتوقعات من أكثر من 4000 مطار (تقارير الطقس للمطار METAR والتنبؤ بالطقس بالمطارTAF).

المحطات المتاحة هي النقط الصفراء والحمراء على الخريطة.

حرك المؤشر فوق النقطة لمعرفة اسم المحطة.

ثم انقر لمعرفة أرصاد وتوقعات الطقس.

لتغيير الخارطة: اضغط على الأزرار الخضراء مع رمز الصليب الأسود للتكبير. على الزر الأخضر مع شرطة للتصغير، أو على الأسهم الخضراء للخرائط المجاورة.


METAR-TAF: